Time;durP1;ratioP1;P1;durP2;ratioP2;P2;SDS_P1;SDS_P2;PMS_P1;PMS_P2;Temp;Humidity;BMP_temperature;BMP_pressure;BME280_temperature;BME280_humidity;BME280_pressure;Samples;Min_cycle;Max_cycle;Signal;HPM_P1;HPM_P2
2021/05/13 00:00:25;;;;;;;11.10;5.80;;;8.20;99.90;;;;;;5069422;28;20203;-63
2021/05/13 00:02:53;;;;;;;11.77;5.47;;;8.20;99.90;;;;;;5068166;28;20197;-64
2021/05/13 00:05:22;;;;;;;9.63;6.00;;;8.20;99.90;;;;;;5065508;28;20192;-63
2021/05/13 00:07:50;;;;;;;15.10;7.10;;;8.20;99.90;;;;;;5070221;28;20231;-64
2021/05/13 00:10:21;;;;;;;9.87;6.33;;;8.20;99.90;;;;;;5070499;28;20224;-64
2021/05/13 00:12:56;;;;;;;8.47;5.77;;;8.30;99.90;;;;;;5070756;28;20258;-63
2021/05/13 00:15:26;;;;;;;11.60;6.70;;;8.30;99.90;;;;;;5056023;28;20243;-63
2021/05/13 00:17:55;;;;;;;16.83;7.23;;;8.40;99.90;;;;;;5066295;28;20605;-63
2021/05/13 00:20:27;;;;;;;13.27;6.73;;;8.40;99.90;;;;;;5066829;28;20195;-63
2021/05/13 00:22:56;;;;;;;9.70;7.10;;;8.50;99.90;;;;;;5067607;28;20246;-63
2021/05/13 00:25:25;;;;;;;11.27;6.37;;;8.50;99.90;;;;;;5068150;28;20188;-64
2021/05/13 00:27:53;;;;;;;8.27;5.93;;;8.50;99.90;;;;;;5068588;28;20207;-63
2021/05/13 00:30:22;;;;;;;7.80;6.77;;;8.60;99.90;;;;;;5067087;28;20673;-64
2021/05/13 00:32:52;;;;;;;8.57;5.90;;;8.60;99.90;;;;;;5063425;28;20188;-64
2021/05/13 00:35:20;;;;;;;11.63;5.83;;;8.70;99.90;;;;;;5066575;28;20232;-63
2021/05/13 00:37:50;;;;;;;6.87;6.20;;;8.70;99.90;;;;;;5068057;28;20752;-64
2021/05/13 00:40:20;;;;;;;10.67;6.00;;;8.70;99.90;;;;;;5069574;28;20224;-64
2021/05/13 00:42:48;;;;;;;10.80;6.23;;;8.70;99.90;;;;;;5067697;28;20239;-63
2021/05/13 00:45:17;;;;;;;10.03;6.10;;;8.70;99.90;;;;;;5064525;28;20192;-63
2021/05/13 00:47:48;;;;;;;12.93;6.37;;;8.80;99.90;;;;;;5068084;28;20238;-63
2021/05/13 00:50:17;;;;;;;9.10;6.27;;;8.80;99.90;;;;;;5068998;28;20204;-63
2021/05/13 00:52:46;;;;;;;11.97;5.97;;;8.80;99.90;;;;;;5069089;28;20215;-64
2021/05/13 00:55:16;;;;;;;9.97;5.93;;;8.80;99.90;;;;;;5069837;28;20216;-63
2021/05/13 00:57:46;;;;;;;15.33;6.53;;;8.80;99.90;;;;;;5068329;28;20642;-63
2021/05/13 01:00:33;;;;;;;6.27;5.67;;;8.80;99.90;;;;;;5068883;28;20287;-64
2021/05/13 01:03:01;;;;;;;11.13;6.37;;;8.90;99.90;;;;;;5064208;28;20667;-63
2021/05/13 01:05:31;;;;;;;10.77;5.73;;;8.90;99.90;;;;;;5067771;28;20192;-64
2021/05/13 01:07:59;;;;;;;6.63;5.33;;;8.90;99.90;;;;;;5063562;28;20197;-63
2021/05/13 01:10:29;;;;;;;13.20;6.53;;;8.90;99.90;;;;;;5069538;28;20726;-64
2021/05/13 01:13:01;;;;;;;9.93;5.87;;;8.90;99.90;;;;;;5066619;28;20283;-63
2021/05/13 01:15:35;;;;;;;7.13;5.67;;;8.90;99.90;;;;;;5067524;28;20303;-63
2021/05/13 01:18:08;;;;;;;7.47;5.73;;;8.90;99.90;;;;;;5067380;28;20225;-63
2021/05/13 01:20:37;;;;;;;8.73;5.90;;;9.00;99.90;;;;;;5067868;28;20237;-64
2021/05/13 01:23:10;;;;;;;8.73;5.77;;;9.00;99.90;;;;;;5067012;28;20195;-63
2021/05/13 01:25:48;;;;;;;8.60;6.13;;;9.00;99.90;;;;;;5067803;28;20238;-64
2021/05/13 01:28:15;;;;;;;10.60;6.00;;;9.00;99.90;;;;;;5066474;28;20192;-64
2021/05/13 01:30:44;;;;;;;14.17;6.10;;;9.00;99.90;;;;;;5067255;28;20287;-64
2021/05/13 01:33:12;;;;;;;16.20;6.53;;;9.00;99.90;;;;;;5066563;28;20287;-63
2021/05/13 01:35:41;;;;;;;10.67;6.30;;;9.00;99.90;;;;;;5066231;28;20216;-64
2021/05/13 01:38:11;;;;;;;10.83;6.27;;;9.00;99.90;;;;;;5066274;28;20231;-63
2021/05/13 01:40:40;;;;;;;8.43;5.83;;;9.00;99.90;;;;;;5067905;28;20737;-63
2021/05/13 01:43:08;;;;;;;8.17;5.90;;;9.00;99.90;;;;;;5067593;28;20286;-63
2021/05/13 01:45:41;;;;;;;8.97;6.30;;;9.00;99.90;;;;;;5066793;28;20271;-63
2021/05/13 01:48:09;;;;;;;8.60;6.37;;;9.00;99.90;;;;;;5068351;28;20619;-64
2021/05/13 01:50:39;;;;;;;8.37;6.27;;;9.00;99.90;;;;;;5066941;28;20192;-63
2021/05/13 01:53:07;;;;;;;6.80;6.17;;;9.00;99.90;;;;;;5068067;28;20231;-64
2021/05/13 01:55:37;;;;;;;8.07;5.57;;;9.00;99.90;;;;;;5068010;28;20208;-64
2021/05/13 01:58:05;;;;;;;9.10;6.10;;;8.90;99.90;;;;;;5066733;28;20299;-63
2021/05/13 02:00:34;;;;;;;6.07;5.47;;;8.90;99.90;;;;;;5062208;28;20245;-63
2021/05/13 02:03:02;;;;;;;8.47;5.40;;;8.90;99.90;;;;;;5069240;28;20187;-64
2021/05/13 02:05:31;;;;;;;11.17;5.73;;;8.80;99.90;;;;;;5068627;28;20216;-64
2021/05/13 02:07:58;;;;;;;8.87;6.00;;;8.80;99.90;;;;;;5069189;28;20212;-63
2021/05/13 02:10:26;;;;;;;9.97;5.63;;;8.70;99.90;;;;;;5068204;28;20231;-63
2021/05/13 02:12:56;;;;;;;6.57;5.60;;;8.70;99.90;;;;;;5068333;28;20210;-64
2021/05/13 02:15:24;;;;;;;6.43;5.37;;;8.60;99.90;;;;;;5065088;28;20215;-63
2021/05/13 02:17:53;;;;;;;9.40;5.70;;;8.60;99.90;;;;;;5063045;28;20200;-63
2021/05/13 02:20:23;;;;;;;6.57;5.97;;;8.50;99.90;;;;;;5067801;28;20706;-63
2021/05/13 02:22:54;;;;;;;7.83;5.97;;;8.50;99.90;;;;;;5067306;28;20655;-63
2021/05/13 02:25:22;;;;;;;10.63;5.83;;;8.40;99.90;;;;;;5063487;28;20188;-63
2021/05/13 02:27:51;;;;;;;9.50;6.27;;;8.30;99.90;;;;;;5066016;28;20697;-64
2021/05/13 02:30:20;;;;;;;8.37;6.37;;;8.30;99.90;;;;;;5071984;28;20222;-64
2021/05/13 02:32:48;;;;;;;9.47;6.13;;;8.30;99.90;;;;;;5069689;28;20291;-64
2021/05/13 02:35:16;;;;;;;9.77;6.40;;;8.20;99.90;;;;;;5072268;28;20204;-63
2021/05/13 02:37:45;;;;;;;7.30;5.87;;;8.20;99.90;;;;;;5071222;28;20262;-63
2021/05/13 02:40:14;;;;;;;8.70;5.70;;;8.10;99.90;;;;;;5071619;28;20283;-63
2021/05/13 02:42:43;;;;;;;8.67;5.93;;;8.00;99.90;;;;;;5068804;28;20188;-64
2021/05/13 02:45:12;;;;;;;7.53;6.13;;;8.00;99.90;;;;;;5070553;28;20219;-63
2021/05/13 02:47:41;;;;;;;7.57;6.03;;;7.90;99.90;;;;;;5069295;28;20196;-63
2021/05/13 02:50:11;;;;;;;9.43;6.13;;;7.90;99.90;;;;;;5069779;28;20623;-64
2021/05/13 02:52:39;;;;;;;11.20;6.60;;;7.90;99.90;;;;;;5069438;28;20651;-63
2021/05/13 02:55:09;;;;;;;8.50;6.10;;;7.90;99.90;;;;;;5070833;28;20204;-63
2021/05/13 02:57:37;;;;;;;13.97;6.43;;;7.80;99.90;;;;;;5070558;28;20238;-63
2021/05/13 03:00:18;;;;;;;11.83;6.20;;;7.80;99.90;;;;;;5068992;28;20612;-63
2021/05/13 03:02:47;;;;;;;7.93;6.23;;;7.80;99.90;;;;;;5069431;28;20196;-63
2021/05/13 03:05:16;;;;;;;7.90;6.50;;;7.70;99.90;;;;;;5070440;28;20239;-63
2021/05/13 03:07:46;;;;;;;12.93;6.70;;;7.70;99.90;;;;;;5070876;28;20196;-63
2021/05/13 03:10:20;;;;;;;8.03;6.20;;;7.70;99.90;;;;;;5065981;28;20672;-63
2021/05/13 03:12:49;;;;;;;10.57;6.40;;;7.60;99.90;;;;;;5066221;28;20242;-63
2021/05/13 03:15:18;;;;;;;9.80;6.33;;;7.60;99.90;;;;;;5070995;28;20232;-63
2021/05/13 03:17:49;;;;;;;8.33;5.63;;;7.60;99.90;;;;;;5071287;28;20726;-63
2021/05/13 03:20:19;;;;;;;8.30;5.90;;;7.60;99.90;;;;;;5070219;28;20959;-63
2021/05/13 03:22:51;;;;;;;9.40;5.50;;;7.50;99.90;;;;;;5069453;28;20195;-63
2021/05/13 03:25:25;;;;;;;9.40;5.80;;;7.50;99.90;;;;;;5069203;28;20234;-63
2021/05/13 03:27:55;;;;;;;10.07;6.47;;;7.50;99.90;;;;;;5069055;28;20208;-63
2021/05/13 03:30:24;;;;;;;6.47;5.80;;;7.40;99.90;;;;;;5069973;28;20188;-64
2021/05/13 03:32:54;;;;;;;6.60;6.10;;;7.40;99.90;;;;;;5070141;28;20206;-63
2021/05/13 03:35:22;;;;;;;7.30;6.60;;;7.50;99.90;;;;;;5069760;28;20257;-63
2021/05/13 03:37:50;;;;;;;9.93;6.50;;;7.40;99.90;;;;;;5067315;28;20572;-63
2021/05/13 03:40:18;;;;;;;9.10;6.37;;;7.40;99.90;;;;;;5063694;28;20285;-63
2021/05/13 03:42:46;;;;;;;9.93;6.03;;;7.40;99.90;;;;;;5064086;28;20199;-63
2021/05/13 03:45:14;;;;;;;11.47;6.60;;;7.50;99.90;;;;;;5064749;28;20192;-63
2021/05/13 03:47:42;;;;;;;9.70;6.50;;;7.50;99.90;;;;;;5067188;28;20235;-63
2021/05/13 03:50:12;;;;;;;6.13;5.63;;;7.60;99.90;;;;;;5047595;28;20196;-63
2021/05/13 03:52:39;;;;;;;8.17;5.67;;;7.60;99.90;;;;;;5062758;28;20196;-63
2021/05/13 03:55:08;;;;;;;6.63;5.90;;;7.60;99.90;;;;;;5069903;28;20298;-63
2021/05/13 03:57:36;;;;;;;8.37;6.53;;;7.60;99.90;;;;;;5065566;28;20271;-63
2021/05/13 04:00:08;;;;;;;9.00;6.23;;;7.60;99.90;;;;;;5067057;28;20321;-63
2021/05/13 04:02:36;;;;;;;14.27;7.70;;;7.60;99.90;;;;;;5069600;28;20681;-63
2021/05/13 04:05:05;;;;;;;12.07;7.60;;;7.60;99.90;;;;;;5063368;28;20187;-63
2021/05/13 04:07:37;;;;;;;8.83;7.53;;;7.60;99.90;;;;;;5071060;28;20258;-63
2021/05/13 04:10:07;;;;;;;10.93;8.90;;;7.60;99.90;;;;;;5061582;28;20227;-63
2021/05/13 04:12:37;;;;;;;10.70;7.93;;;7.70;99.90;;;;;;5065302;28;20656;-63
2021/05/13 04:15:07;;;;;;;11.60;8.40;;;7.80;99.90;;;;;;5065398;28;20204;-63
2021/05/13 04:17:35;;;;;;;9.30;7.50;;;7.90;99.90;;;;;;5069361;28;20237;-64
2021/05/13 04:20:05;;;;;;;9.13;8.03;;;7.90;99.90;;;;;;5068577;28;20539;-63
2021/05/13 04:22:33;;;;;;;13.00;8.10;;;8.00;99.90;;;;;;5069343;28;20222;-63
2021/05/13 04:25:01;;;;;;;9.50;7.40;;;8.10;99.90;;;;;;5068497;28;20196;-63
2021/05/13 04:27:29;;;;;;;17.63;8.73;;;8.10;99.90;;;;;;5069627;28;20202;-63
2021/05/13 04:29:57;;;;;;;16.87;9.10;;;8.20;99.90;;;;;;5069158;28;20223;-64
2021/05/13 04:32:25;;;;;;;15.27;9.57;;;8.20;99.90;;;;;;5069717;28;20188;-63
2021/05/13 04:34:53;;;;;;;9.77;7.93;;;8.30;99.90;;;;;;5068157;28;20199;-63
2021/05/13 04:37:21;;;;;;;16.10;10.50;;;8.40;99.90;;;;;;5066025;28;20594;-63
2021/05/13 04:39:50;;;;;;;15.63;11.20;;;8.50;99.90;;;;;;5065062;28;20607;-63
2021/05/13 04:42:18;;;;;;;15.53;10.73;;;8.60;99.90;;;;;;5064475;28;20238;-63
2021/05/13 04:44:46;;;;;;;19.67;12.73;;;8.70;99.90;;;;;;5064634;28;20220;-63
2021/05/13 04:47:26;;;;;;;20.73;11.97;;;8.80;99.90;;;;;;5058467;28;20245;-63
2021/05/13 04:49:55;;;;;;;21.00;12.50;;;8.90;99.90;;;;;;5054195;28;20287;-63
2021/05/13 04:52:25;;;;;;;20.87;12.53;;;9.00;99.90;;;;;;5053694;28;20191;-63
2021/05/13 04:54:56;;;;;;;19.40;12.17;;;9.10;99.90;;;;;;5045801;28;20202;-63
2021/05/13 04:57:25;;;;;;;15.93;11.53;;;9.10;99.90;;;;;;5064395;28;20212;-63
2021/05/13 04:59:53;;;;;;;17.77;12.80;;;9.20;99.90;;;;;;5064128;28;20204;-63
2021/05/13 05:02:21;;;;;;;19.90;13.73;;;9.30;99.90;;;;;;5062839;28;20238;-64
2021/05/13 05:04:49;;;;;;;19.17;13.60;;;9.20;99.90;;;;;;5062709;28;20265;-63
2021/05/13 05:07:16;;;;;;;17.50;12.47;;;9.30;99.90;;;;;;5066888;28;20252;-63
2021/05/13 05:09:44;;;;;;;18.33;12.33;;;9.30;99.90;;;;;;5063503;28;20184;-63
2021/05/13 05:12:14;;;;;;;15.37;11.63;;;9.40;99.90;;;;;;5056318;28;20220;-64
2021/05/13 05:14:42;;;;;;;15.47;11.93;;;9.40;99.90;;;;;;5066625;28;20208;-63
2021/05/13 05:17:10;;;;;;;15.77;12.07;;;9.50;99.90;;;;;;5064554;28;20657;-63
2021/05/13 05:19:38;;;;;;;15.10;13.13;;;9.60;99.90;;;;;;5067409;28;20249;-63
2021/05/13 05:22:06;;;;;;;17.63;13.13;;;9.70;99.90;;;;;;5066502;28;20275;-63
2021/05/13 05:24:35;;;;;;;19.03;13.27;;;9.70;99.90;;;;;;5067497;28;20196;-63
2021/05/13 05:27:03;;;;;;;20.40;13.07;;;9.80;99.90;;;;;;5067531;28;20671;-63
2021/05/13 05:29:32;;;;;;;24.67;14.03;;;9.90;99.90;;;;;;5066523;28;20197;-63
2021/05/13 05:32:00;;;;;;;19.67;13.20;;;9.90;99.90;;;;;;5064861;28;20607;-63
2021/05/13 05:34:28;;;;;;;19.13;13.83;;;10.00;99.90;;;;;;5061311;28;20727;-63
2021/05/13 05:36:56;;;;;;;17.30;13.50;;;10.10;99.90;;;;;;5065179;28;20646;-63
2021/05/13 05:39:25;;;;;;;17.57;12.93;;;10.20;99.90;;;;;;5061979;28;20225;-63
2021/05/13 05:41:53;;;;;;;24.33;13.33;;;10.30;99.90;;;;;;5062915;28;20192;-64
2021/05/13 05:44:21;;;;;;;17.23;11.70;;;10.40;99.90;;;;;;5062197;28;20193;-63
2021/05/13 05:46:50;;;;;;;21.30;14.07;;;10.40;99.90;;;;;;5063721;28;20216;-63
2021/05/13 05:49:19;;;;;;;16.53;12.03;;;10.50;99.90;;;;;;5056059;28;20285;-63
2021/05/13 05:51:47;;;;;;;16.53;11.87;;;10.60;99.90;;;;;;5051493;28;20217;-63
2021/05/13 05:54:15;;;;;;;23.87;14.03;;;10.60;99.90;;;;;;5063607;28;20192;-63
2021/05/13 05:56:43;;;;;;;17.23;13.13;;;10.70;99.90;;;;;;5063936;28;20227;-63
2021/05/13 05:59:11;;;;;;;19.43;12.93;;;10.70;99.90;;;;;;5066416;28;20286;-63
2021/05/13 06:01:39;;;;;;;15.83;12.70;;;10.80;99.90;;;;;;5060958;28;20273;-63
2021/05/13 06:04:08;;;;;;;16.17;13.33;;;10.90;99.90;;;;;;5062778;28;20200;-64
2021/05/13 06:06:37;;;;;;;14.43;12.63;;;11.10;99.90;;;;;;5065030;28;20231;-63
2021/05/13 06:09:06;;;;;;;15.40;12.40;;;11.20;99.90;;;;;;5068877;28;20249;-63
2021/05/13 06:11:33;;;;;;;19.47;12.93;;;11.30;99.90;;;;;;5066932;28;20195;-63
2021/05/13 06:14:01;;;;;;;19.67;12.97;;;11.30;99.90;;;;;;5066516;28;20254;-63
2021/05/13 06:16:29;;;;;;;19.30;12.70;;;11.40;99.90;;;;;;5064124;28;20216;-63
2021/05/13 06:18:59;;;;;;;18.67;13.70;;;11.50;99.90;;;;;;5066219;28;20200;-63
2021/05/13 06:21:29;;;;;;;18.13;13.23;;;11.50;99.90;;;;;;5067015;28;20254;-63
2021/05/13 06:23:59;;;;;;;18.70;13.20;;;11.50;99.90;;;;;;5066139;28;20200;-63
2021/05/13 06:26:29;;;;;;;16.67;12.07;;;11.50;99.90;;;;;;5062969;28;20210;-63
2021/05/13 06:29:02;;;;;;;20.63;12.70;;;11.60;99.90;;;;;;5062390;28;20252;-63
2021/05/13 06:31:30;;;;;;;15.93;12.57;;;11.60;99.90;;;;;;5060477;28;20662;-63
2021/05/13 06:33:58;;;;;;;13.20;11.33;;;11.70;99.90;;;;;;5067306;28;20196;-63
2021/05/13 06:36:26;;;;;;;16.73;11.70;;;11.70;99.90;;;;;;5063453;28;20218;-64
2021/05/13 06:38:55;;;;;;;16.17;11.87;;;11.80;99.90;;;;;;5057678;28;20311;-63
2021/05/13 06:41:23;;;;;;;18.00;11.30;;;11.90;99.90;;;;;;5062558;28;20920;-64
2021/05/13 06:43:51;;;;;;;16.63;11.13;;;12.00;99.90;;;;;;5066065;28;20604;-63
2021/05/13 06:46:21;;;;;;;14.87;10.77;;;12.00;99.90;;;;;;5066102;28;20220;-64
2021/05/13 06:48:50;;;;;;;14.50;11.77;;;12.00;99.90;;;;;;5066380;28;20663;-63
2021/05/13 06:51:18;;;;;;;13.50;11.43;;;12.10;99.90;;;;;;5066501;28;20196;-64
2021/05/13 06:53:46;;;;;;;17.43;11.10;;;12.20;99.90;;;;;;5059168;28;20663;-64
2021/05/13 06:56:15;;;;;;;14.67;10.93;;;12.20;99.90;;;;;;5062229;28;20251;-64
2021/05/13 06:58:44;;;;;;;17.63;11.47;;;12.20;99.90;;;;;;5063666;28;20198;-64
2021/05/13 07:01:12;;;;;;;18.33;12.17;;;12.30;99.90;;;;;;5057592;28;20262;-64
2021/05/13 07:03:40;;;;;;;16.17;12.17;;;12.40;99.90;;;;;;5065360;28;20228;-64
2021/05/13 07:06:07;;;;;;;15.83;11.83;;;12.50;99.90;;;;;;5064421;28;20275;-63
2021/05/13 07:08:35;;;;;;;19.07;10.67;;;12.60;99.90;;;;;;5061434;28;20275;-64
2021/05/13 07:11:03;;;;;;;13.27;10.90;;;12.70;99.90;;;;;;5066523;28;20207;-63
2021/05/13 07:13:32;;;;;;;14.10;10.80;;;12.80;99.90;;;;;;5061127;28;20189;-63
2021/05/13 07:16:00;;;;;;;17.03;11.00;;;12.90;99.90;;;;;;5068006;28;20207;-64
2021/05/13 07:18:30;;;;;;;17.33;10.43;;;13.10;99.90;;;;;;5065791;28;20196;-63
2021/05/13 07:20:58;;;;;;;13.80;10.80;;;13.30;99.90;;;;;;5063535;28;20188;-64
2021/05/13 07:23:26;;;;;;;14.20;9.63;;;13.30;99.90;;;;;;5066442;28;20226;-64
2021/05/13 07:25:55;;;;;;;14.03;9.87;;;13.50;99.90;;;;;;5065036;28;20192;-64
2021/05/13 07:28:23;;;;;;;12.10;9.40;;;13.70;99.90;;;;;;5069135;28;20233;-64
2021/05/13 07:30:51;;;;;;;12.87;8.90;;;13.90;99.90;;;;;;5068164;28;20234;-64
2021/05/13 07:33:19;;;;;;;11.83;8.50;;;14.10;99.90;;;;;;5067011;28;20195;-64
2021/05/13 07:35:47;;;;;;;12.53;8.30;;;14.20;99.90;;;;;;5058895;28;20188;-64
2021/05/13 07:38:15;;;;;;;16.67;7.97;;;14.30;99.90;;;;;;5066404;28;20251;-64
2021/05/13 07:40:43;;;;;;;10.33;8.07;;;14.40;99.90;;;;;;5060460;28;20195;-64
2021/05/13 07:43:12;;;;;;;12.10;8.23;;;14.50;99.90;;;;;;5058509;28;20197;-64
2021/05/13 07:45:44;;;;;;;10.47;7.90;;;14.60;99.90;;;;;;5066098;28;20694;-64
2021/05/13 07:48:13;;;;;;;9.57;7.40;;;14.70;99.90;;;;;;5063199;28;20185;-64
2021/05/13 07:50:41;;;;;;;9.50;6.13;;;15.00;99.90;;;;;;5064607;28;20237;-64
2021/05/13 07:53:09;;;;;;;8.57;4.47;;;15.40;99.90;;;;;;5060964;28;20580;-64
2021/05/13 07:55:38;;;;;;;5.03;3.77;;;15.70;99.90;;;;;;5057955;28;20196;-64
2021/05/13 07:58:05;;;;;;;6.47;3.40;;;15.60;99.90;;;;;;5062961;28;20304;-64
2021/05/13 08:00:33;;;;;;;5.97;3.20;;;15.60;99.90;;;;;;5065566;28;20223;-64
2021/05/13 08:03:02;;;;;;;6.23;3.60;;;15.30;99.90;;;;;;5066971;28;20236;-64
2021/05/13 08:05:30;;;;;;;10.10;3.23;;;15.10;99.90;;;;;;5067769;28;20200;-64
2021/05/13 08:07:58;;;;;;;3.60;2.67;;;15.10;99.90;;;;;;5067004;28;20204;-63
2021/05/13 08:10:26;;;;;;;6.80;3.50;;;15.00;99.90;;;;;;5066729;28;21024;-64
2021/05/13 08:12:54;;;;;;;5.87;3.50;;;14.90;99.90;;;;;;5068544;28;20610;-64
2021/05/13 08:15:22;;;;;;;5.60;3.20;;;14.80;99.90;;;;;;5067064;28;20192;-64
2021/05/13 08:17:50;;;;;;;5.90;2.93;;;14.80;99.90;;;;;;5069520;28;20219;-64
2021/05/13 08:20:18;;;;;;;5.33;2.77;;;14.80;99.90;;;;;;5068110;28;20200;-64
2021/05/13 08:22:49;;;;;;;9.63;3.60;;;14.80;99.90;;;;;;5063235;28;20200;-64
2021/05/13 08:25:20;;;;;;;6.83;2.70;;;14.80;99.90;;;;;;5061915;28;20729;-64
2021/05/13 08:27:49;;;;;;;7.70;3.00;;;14.90;99.90;;;;;;5066707;28;20245;-63
2021/05/13 08:30:18;;;;;;;9.30;3.20;;;15.10;99.90;;;;;;5059889;28;20204;-64
2021/05/13 08:32:45;;;;;;;8.90;3.30;;;15.20;99.90;;;;;;5068364;28;20224;-64
2021/05/13 08:35:13;;;;;;;6.83;2.60;;;15.30;99.90;;;;;;5066916;28;20855;-63
2021/05/13 08:37:41;;;;;;;7.00;3.13;;;15.20;99.90;;;;;;5064130;28;20251;-64
2021/05/13 08:40:11;;;;;;;6.70;2.90;;;15.30;99.90;;;;;;5065168;28;20852;-64
2021/05/13 08:42:39;;;;;;;5.40;2.47;;;15.40;99.90;;;;;;5064848;28;20224;-64
2021/05/13 08:45:08;;;;;;;3.63;2.77;;;15.60;99.90;;;;;;5062928;28;20604;-64
2021/05/13 08:47:41;;;;;;;5.30;2.40;;;15.80;99.90;;;;;;5065580;28;20188;-64
2021/05/13 08:50:10;;;;;;;3.53;2.53;;;16.10;99.90;;;;;;5063246;28;20249;-64
2021/05/13 08:52:37;;;;;;;5.07;2.30;;;16.10;99.90;;;;;;5068302;28;20287;-64
2021/05/13 08:55:07;;;;;;;4.17;2.30;;;16.10;99.90;;;;;;5069302;28;20192;-64
2021/05/13 08:57:36;;;;;;;2.87;2.60;;;16.00;99.90;;;;;;5056466;28;20209;-64
2021/05/13 09:00:06;;;;;;;5.30;2.23;;;16.10;99.90;;;;;;5064967;28;20231;-64
2021/05/13 09:02:34;;;;;;;6.40;3.27;;;15.90;99.90;;;;;;5061135;28;20192;-64
2021/05/13 09:05:03;;;;;;;5.77;2.80;;;15.70;99.90;;;;;;5059069;28;20188;-64
2021/05/13 09:07:32;;;;;;;6.13;2.63;;;15.60;99.90;;;;;;5064174;28;20193;-64
2021/05/13 09:10:05;;;;;;;5.37;2.90;;;15.60;99.90;;;;;;5066131;28;20220;-64
2021/05/13 09:12:36;;;;;;;7.47;2.83;;;15.60;99.90;;;;;;5061897;28;20189;-64
2021/05/13 09:15:07;;;;;;;4.33;3.10;;;15.70;99.90;;;;;;5064757;28;20216;-64
2021/05/13 09:17:36;;;;;;;6.47;2.80;;;15.70;99.90;;;;;;5066070;28;20208;-64
2021/05/13 09:20:06;;;;;;;6.53;2.90;;;15.70;99.90;;;;;;5064162;28;20270;-64
2021/05/13 09:22:34;;;;;;;7.87;2.80;;;15.80;99.90;;;;;;5077246;28;20220;-64
2021/05/13 09:25:07;;;;;;;6.03;2.90;;;15.70;99.90;;;;;;5065523;28;20191;-64
2021/05/13 09:27:42;;;;;;;9.13;3.10;;;15.80;99.90;;;;;;5064602;28;20215;-64
2021/05/13 09:30:17;;;;;;;4.47;2.77;;;16.00;99.90;;;;;;5063761;28;20245;-64
2021/05/13 09:32:47;;;;;;;4.10;2.53;;;16.30;99.90;;;;;;5067640;28;20229;-64
2021/05/13 09:35:17;;;;;;;6.43;2.87;;;16.80;99.90;;;;;;5068971;28;20210;-64
2021/05/13 09:37:47;;;;;;;3.73;2.40;;;17.00;99.90;;;;;;5058904;28;20746;-64
2021/05/13 09:40:21;;;;;;;4.57;2.83;;;17.10;99.90;;;;;;5064579;28;20207;-64
2021/05/13 09:43:09;;;;;;;13.50;2.97;;;17.40;99.90;;;;;;5062007;28;20202;-65
2021/05/13 09:45:45;;;;;;;7.63;2.73;;;17.70;99.90;;;;;;5062476;28;20196;-65
2021/05/13 09:48:31;;;;;;;6.57;2.80;;;17.90;99.90;;;;;;5062725;28;20188;-64
2021/05/13 09:51:14;;;;;;;6.00;2.90;;;18.40;99.90;;;;;;5060683;28;20747;-65
2021/05/13 09:53:42;;;;;;;5.70;2.50;;;19.40;99.90;;;;;;5063342;28;20291;-64
2021/05/13 09:56:28;;;;;;;6.07;2.50;;;20.10;99.90;;;;;;5057197;28;20201;-65
2021/05/13 09:58:57;;;;;;;5.20;2.50;;;20.30;99.90;;;;;;5062520;28;20219;-65
2021/05/13 10:01:36;;;;;;;5.10;2.50;;;20.70;99.90;;;;;;5062418;28;20197;-65
2021/05/13 10:04:06;;;;;;;4.87;2.60;;;21.60;99.90;;;;;;5064721;28;20279;-65
2021/05/13 10:06:35;;;;;;;5.57;2.70;;;21.80;99.90;;;;;;5062223;28;20192;-65
2021/05/13 10:09:04;;;;;;;6.73;2.50;;;22.00;99.90;;;;;;5063850;28;20204;-65
2021/05/13 10:11:33;;;;;;;3.70;2.40;;;22.10;99.90;;;;;;5063450;28;20282;-65
2021/05/13 10:14:05;;;;;;;6.17;2.23;;;21.40;99.90;;;;;;5063874;28;20742;-65
2021/05/13 10:16:35;;;;;;;3.60;2.23;;;20.40;99.90;;;;;;5062532;28;20190;-65
2021/05/13 10:19:10;;;;;;;6.50;3.23;;;19.90;99.90;;;;;;5068169;28;20239;-65
2021/05/13 10:21:41;;;;;;;5.00;3.40;;;19.60;99.90;;;;;;5060715;28;20222;-64
2021/05/13 10:24:13;;;;;;;8.03;2.97;;;19.20;99.90;;;;;;5066866;28;20198;-65
2021/05/13 10:26:45;;;;;;;4.30;2.70;;;18.80;99.90;;;;;;5061709;28;20287;-65
2021/05/13 10:29:37;;;;;;;133.57;91.63;;;18.70;99.90;;;;;;5065793;28;20192;-64
2021/05/13 10:32:11;;;;;;;116.23;54.10;;;18.60;99.90;;;;;;5056826;28;21052;-64
2021/05/13 10:34:53;;;;;;;7.03;4.17;;;18.30;99.90;;;;;;5061471;28;20228;-64
2021/05/13 10:37:30;;;;;;;35.33;21.60;;;18.30;99.90;;;;;;5062160;28;20281;-64
2021/05/13 10:40:31;;;;;;;16.90;10.63;;;18.60;99.90;;;;;;5063203;28;20210;-65
2021/05/13 10:43:04;;;;;;;6.00;3.47;;;18.80;99.90;;;;;;5060085;28;20253;-64
2021/05/13 10:45:34;;;;;;;8.20;3.73;;;18.70;99.90;;;;;;5058048;28;20192;-65
2021/05/13 10:48:18;;;;;;;9.03;4.97;;;18.50;99.90;;;;;;5066586;28;20198;-64
2021/05/13 10:50:52;;;;;;;5.07;3.67;;;18.30;99.90;;;;;;5067144;28;20184;-65
2021/05/13 10:53:42;;;;;;;7.73;4.00;;;18.10;99.90;;;;;;5066909;28;20804;-65
2021/05/13 10:56:19;;;;;;;6.77;4.50;;;17.90;99.90;;;;;;5062856;28;20234;-64
2021/05/13 10:59:00;;;;;;;11.30;5.13;;;17.70;99.90;;;;;;5068594;28;20744;-64
2021/05/13 11:01:37;;;;;;;10.80;4.97;;;17.70;99.90;;;;;;5060636;28;20325;-65
2021/05/13 11:04:38;;;;;;;10.57;5.20;;;17.70;99.90;;;;;;5063155;28;20207;-64
2021/05/13 11:07:28;;;;;;;7.70;4.83;;;18.20;99.90;;;;;;5066842;28;20198;-65
2021/05/13 11:10:04;;;;;;;8.03;4.27;;;18.90;99.90;;;;;;5067376;28;20196;-65
2021/05/13 11:12:40;;;;;;;8.43;4.27;;;19.30;99.90;;;;;;5068922;28;21515;-65
2021/05/13 11:15:20;;;;;;;6.17;4.40;;;19.10;99.90;;;;;;5063177;28;20196;-65
2021/05/13 11:18:11;;;;;;;7.67;4.00;;;19.00;99.90;;;;;;5065113;28;20671;-65
2021/05/13 11:20:48;;;;;;;6.03;4.00;;;19.00;99.90;;;;;;5067331;28;20200;-65
2021/05/13 11:23:21;;;;;;;7.10;4.17;;;19.00;99.90;;;;;;5061158;28;20287;-65
2021/05/13 11:25:51;;;;;;;6.37;4.27;;;19.40;99.90;;;;;;5065944;28;20731;-65
2021/05/13 11:28:24;;;;;;;7.70;4.07;;;19.40;99.90;;;;;;5062939;28;20180;-65
2021/05/13 11:30:57;;;;;;;6.77;4.10;;;19.20;99.90;;;;;;5065424;28;20658;-65
2021/05/13 11:33:26;;;;;;;6.47;3.80;;;18.80;99.90;;;;;;5064356;28;20200;-65
2021/05/13 11:36:03;;;;;;;6.90;4.33;;;18.50;99.90;;;;;;5064709;28;20742;-65
2021/05/13 11:38:31;;;;;;;4.67;4.17;;;18.10;99.90;;;;;;5064015;28;20805;-65
2021/05/13 11:40:59;;;;;;;6.13;4.03;;;17.80;99.90;;;;;;5066996;28;20196;-65
2021/05/13 11:43:28;;;;;;;6.37;4.40;;;17.60;99.90;;;;;;5065863;28;20345;-65
2021/05/13 11:45:57;;;;;;;7.37;4.23;;;17.60;99.90;;;;;;5065241;28;20215;-65
2021/05/13 11:48:35;;;;;;;5.73;4.07;;;17.70;99.90;;;;;;5063044;28;20191;-65
2021/05/13 11:51:07;;;;;;;7.70;3.90;;;17.40;99.90;;;;;;5061868;28;20204;-64
2021/05/13 11:53:36;;;;;;;4.40;4.00;;;17.00;99.90;;;;;;5065528;28;20655;-65
2021/05/13 11:56:05;;;;;;;5.70;3.90;;;16.80;99.90;;;;;;5059519;28;20647;-65
2021/05/13 11:58:42;;;;;;;4.67;4.27;;;16.60;99.90;;;;;;5062841;28;20310;-65
2021/05/13 12:01:29;;;;;;;4.33;4.03;;;16.30;99.90;;;;;;5060417;28;20306;-65
2021/05/13 12:04:09;;;;;;;4.73;4.43;;;16.00;99.90;;;;;;5056309;28;20228;-65
2021/05/13 12:06:46;;;;;;;6.13;5.67;;;15.70;99.90;;;;;;5063490;28;20195;-65
2021/05/13 12:09:15;;;;;;;8.30;7.50;;;15.50;99.90;;;;;;5065436;28;20192;-65
2021/05/13 12:11:43;;;;;;;10.17;8.90;;;15.50;99.90;;;;;;5065624;28;20254;-65
2021/05/13 12:14:12;;;;;;;13.13;10.43;;;15.50;99.90;;;;;;5063053;28;20272;-65
2021/05/13 12:16:42;;;;;;;13.47;11.13;;;15.40;99.90;;;;;;5063903;28;20254;-65
2021/05/13 12:19:15;;;;;;;13.40;10.80;;;15.40;99.90;;;;;;5063973;28;20204;-65
2021/05/13 12:21:44;;;;;;;15.70;12.00;;;15.30;99.90;;;;;;5061413;28;20220;-65
2021/05/13 12:24:12;;;;;;;12.97;11.47;;;15.30;99.90;;;;;;5066512;28;20262;-65
2021/05/13 12:26:41;;;;;;;13.10;10.27;;;15.30;99.90;;;;;;5068512;28;20188;-65
2021/05/13 12:29:14;;;;;;;9.97;8.97;;;15.00;99.90;;;;;;5068466;28;20184;-65
2021/05/13 12:31:45;;;;;;;12.07;10.87;;;14.80;99.90;;;;;;5069686;28;20282;-65
2021/05/13 12:34:31;;;;;;;14.87;13.23;;;14.60;99.90;;;;;;5062483;28;20189;-64
2021/05/13 12:36:59;;;;;;;13.70;12.20;;;14.40;99.90;;;;;;5066512;28;20252;-64
2021/05/13 12:39:34;;;;;;;14.10;12.60;;;14.20;99.90;;;;;;5064384;28;20204;-64
2021/05/13 12:42:03;;;;;;;16.90;14.20;;;14.10;99.90;;;;;;5068513;28;20199;-65
2021/05/13 12:44:32;;;;;;;15.77;13.77;;;13.90;99.90;;;;;;5062168;28;20213;-65
2021/05/13 12:47:02;;;;;;;12.30;11.07;;;13.80;99.90;;;;;;5054224;28;20656;-65
2021/05/13 12:49:34;;;;;;;9.50;8.50;;;13.80;99.90;;;;;;5070146;28;20274;-65
2021/05/13 12:52:04;;;;;;;10.40;9.30;;;13.70;99.90;;;;;;5069634;28;20198;-64
2021/05/13 12:54:34;;;;;;;10.80;9.53;;;13.50;99.90;;;;;;5065567;28;20189;-64
2021/05/13 12:57:16;;;;;;;12.07;10.43;;;13.30;99.90;;;;;;5055125;28;20203;-65
2021/05/13 12:59:45;;;;;;;15.73;12.90;;;13.10;99.90;;;;;;5064821;28;20216;-66